Time;durP1;ratioP1;P1;durP2;ratioP2;P2;SDS_P1;SDS_P2;PMS_P1;PMS_P2;Temp;Humidity;BMP_temperature;BMP_pressure;BME280_temperature;BME280_humidity;BME280_pressure;Samples;Min_cycle;Max_cycle;Signal;HPM_P1;HPM_P2
2021/12/28 00:00:48;;;;;;;9.15;4.00;;;;;;;3.36;83.20;101615.23;1858819;77;21057;-61
2021/12/28 00:03:17;;;;;;;12.35;3.77;;;;;;;3.34;83.21;101616.97;1858705;77;21495;-61
2021/12/28 00:05:45;;;;;;;10.98;4.45;;;;;;;3.31;83.18;101607.83;1858782;77;21107;-60
2021/12/28 00:08:15;;;;;;;6.90;3.05;;;;;;;3.29;83.19;101600.45;1858791;77;21077;-61
2021/12/28 00:10:44;;;;;;;5.83;2.62;;;;;;;3.22;83.41;101589.56;1858792;77;21048;-61
2021/12/28 00:13:14;;;;;;;8.88;3.42;;;;;;;3.21;83.50;101590.41;1858773;76;21436;-61
2021/12/28 00:18:26;;;;;;;9.90;3.10;;;;;;;3.08;83.73;101578.66;1858817;77;21135;-61
2021/12/28 00:20:58;;;;;;;8.25;2.72;;;;;;;3.06;83.77;101577.78;1858799;77;21471;-60
2021/12/28 00:23:32;;;;;;;7.87;2.62;;;;;;;3.07;83.81;101576.91;1858804;77;21129;-61
2021/12/28 00:26:01;;;;;;;8.85;3.77;;;;;;;3.05;83.81;101570.83;1858924;77;21085;-61
2021/12/28 00:28:29;;;;;;;9.73;3.20;;;;;;;3.06;83.76;101569.09;1858831;77;21198;-62
2021/12/28 00:30:58;;;;;;;8.98;3.47;;;;;;;3.08;83.76;101572.16;1858762;77;21581;-61
2021/12/28 00:33:28;;;;;;;6.95;2.92;;;;;;;3.13;83.66;101564.80;1858815;77;21589;-61
2021/12/28 00:35:56;;;;;;;9.48;3.70;;;;;;;3.14;83.62;101563.51;1858813;77;21488;-61
2021/12/28 00:38:27;;;;;;;12.15;4.35;;;;;;;3.15;83.59;101563.93;1858933;76;21131;-61
2021/12/28 00:41:01;;;;;;;11.90;4.00;;;;;;;3.15;83.56;101560.47;1846041;75;21163;-62
2021/12/28 00:43:32;;;;;;;11.18;4.50;;;;;;;3.15;83.55;101552.66;1840983;78;21043;-62
2021/12/28 00:46:01;;;;;;;11.88;4.22;;;;;;;3.12;83.62;101552.23;1840714;78;21042;-62
2021/12/28 00:48:30;;;;;;;12.65;5.10;;;;;;;3.15;83.69;101548.75;1840722;78;21484;-62
2021/12/28 00:51:00;;;;;;;17.75;5.22;;;;;;;3.17;83.65;101546.62;1840655;78;21038;-61
2021/12/28 00:53:29;;;;;;;13.75;5.12;;;;;;;3.21;83.58;101537.06;1840679;78;21018;-61
2021/12/28 00:55:58;;;;;;;14.00;5.12;;;;;;;3.24;83.50;101535.78;1861107;76;21044;-66
2021/12/28 00:58:27;;;;;;;17.12;5.45;;;;;;;3.26;83.45;101532.75;1872140;76;21116;-68
2021/12/28 01:00:56;;;;;;;15.48;5.17;;;;;;;3.29;83.36;101527.56;1854352;77;21473;-69
2021/12/28 01:03:26;;;;;;;14.05;5.08;;;;;;;3.28;83.31;101519.30;1836636;78;21123;-63
2021/12/28 01:05:55;;;;;;;14.50;5.37;;;;;;;3.28;83.37;101523.20;1836422;78;21525;-62
2021/12/28 01:08:25;;;;;;;15.32;5.47;;;;;;;3.28;83.37;101521.50;1836497;78;21516;-67
2021/12/28 01:10:57;;;;;;;15.30;5.65;;;;;;;3.32;83.33;101520.19;1848671;76;21026;-61
2021/12/28 01:13:27;;;;;;;14.40;5.03;;;;;;;3.32;83.30;101518.47;1867462;76;21465;-64
2021/12/28 01:15:56;;;;;;;19.75;6.30;;;;;;;3.32;83.29;101519.78;1875224;76;21114;-63
2021/12/28 01:18:25;;;;;;;18.67;5.28;;;;;;;3.32;83.29;101522.38;1875276;75;21035;-63
2021/12/28 01:20:54;;;;;;;14.40;5.92;;;;;;;3.33;83.41;101520.20;1875384;76;21056;-63
2021/12/28 01:23:23;;;;;;;16.02;5.55;;;;;;;3.35;83.42;101516.30;1875491;76;21087;-63
2021/12/28 01:25:52;;;;;;;19.77;5.75;;;;;;;3.35;83.40;101513.26;1875377;76;21530;-62
2021/12/28 01:28:20;;;;;;;13.83;5.65;;;;;;;3.36;83.34;101518.91;1876035;76;21041;-62
2021/12/28 01:30:49;;;;;;;15.72;6.03;;;;;;;3.35;83.44;101515.00;1881255;76;21118;-63
2021/12/28 01:33:18;;;;;;;14.13;5.50;;;;;;;3.36;83.46;101512.85;1881307;75;21558;-61
2021/12/28 01:35:47;;;;;;;12.10;4.60;;;;;;;3.35;83.42;101509.35;1868169;76;21516;-64
2021/12/28 01:38:16;;;;;;;14.43;5.78;;;;;;;3.31;83.51;101507.61;1858155;76;21481;-64
2021/12/28 01:40:45;;;;;;;17.50;6.75;;;;;;;3.26;83.58;101505.42;1858241;76;21077;-63
2021/12/28 01:43:19;;;;;;;17.20;6.87;;;;;;;3.23;83.66;101504.13;1858234;77;21042;-65
2021/12/28 01:46:00;;;;;;;18.23;7.30;;;;;;;3.17;83.90;101507.98;1868837;76;21495;-63
2021/12/28 01:48:34;;;;;;;17.00;6.47;;;;;;;3.11;83.89;101499.73;1879449;76;20998;-67
2021/12/28 01:51:06;;;;;;;16.67;5.97;;;;;;;3.08;83.88;101493.20;1866564;75;21055;-67
2021/12/28 01:53:35;;;;;;;13.65;6.42;;;;;;;3.06;83.86;101483.22;1875393;76;21040;-61
2021/12/28 01:56:07;;;;;;;17.10;6.30;;;;;;;3.02;84.00;101484.94;1845284;76;21605;-61
2021/12/28 01:58:36;;;;;;;13.05;6.10;;;;;;;3.03;84.04;101478.03;1839257;78;21488;-62
2021/12/28 02:01:07;;;;;;;19.62;7.40;;;;;;;3.02;84.10;101475.83;1839254;78;21042;-61
2021/12/28 02:03:38;;;;;;;18.30;6.03;;;;;;;2.98;84.36;101475.83;1839391;78;21121;-62
2021/12/28 02:06:28;;;;;;;11.73;5.62;;;;;;;2.92;84.68;101474.08;1839271;77;21126;-65
2021/12/28 02:08:57;;;;;;;17.10;7.03;;;;;;;2.93;84.69;101473.20;1912270;74;21068;-60
2021/12/28 02:11:26;;;;;;;23.05;9.45;;;;;;;2.92;84.72;101475.38;1933410;74;21396;-62
2021/12/28 02:13:55;;;;;;;23.30;8.58;;;;;;;2.93;84.64;101485.34;1933615;74;21017;-61
2021/12/28 02:16:25;;;;;;;23.52;9.23;;;;;;;2.97;84.59;101490.98;1928407;74;21077;-66
2021/12/28 02:18:54;;;;;;;21.57;7.72;;;;;;;2.99;84.57;101486.25;1920828;75;21018;-65
2021/12/28 02:21:23;;;;;;;20.55;7.72;;;;;;;3.03;84.59;101487.99;1921128;75;21029;-64
2021/12/28 02:23:51;;;;;;;20.12;7.00;;;;;;;3.07;84.49;101479.33;1921210;75;21103;-62
2021/12/28 02:26:20;;;;;;;20.37;7.10;;;;;;;3.09;84.34;101476.30;1921062;75;20982;-67
2021/12/28 02:28:49;;;;;;;20.45;7.53;;;;;;;3.08;84.37;101469.38;1921023;75;21155;-64
2021/12/28 02:31:19;;;;;;;21.30;7.25;;;;;;;3.07;84.39;101465.02;1921060;75;21029;-71
2021/12/28 02:33:52;;;;;;;18.37;5.95;;;;;;;3.04;84.52;101465.03;1920958;74;21097;-66
2021/12/28 02:36:20;;;;;;;15.38;5.53;;;;;;;3.06;84.48;101457.20;1920486;75;21089;-68
2021/12/28 02:38:50;;;;;;;24.75;8.35;;;;;;;3.02;84.62;101453.72;1921251;75;21448;-65
2021/12/28 02:41:19;;;;;;;25.90;9.90;;;;;;;3.02;84.72;101461.52;1913625;73;21096;-63
2021/12/28 02:43:48;;;;;;;30.08;10.55;;;;;;;2.99;84.80;101455.03;1891970;76;21554;-66
2021/12/28 02:46:17;;;;;;;25.25;10.03;;;;;;;2.99;84.79;101443.33;1904958;74;21037;-62
2021/12/28 02:48:46;;;;;;;28.38;10.32;;;;;;;3.03;84.71;101455.47;1915190;75;21049;-63
2021/12/28 02:51:17;;;;;;;32.23;11.90;;;;;;;3.04;84.64;101452.02;1896967;75;21199;-61
2021/12/28 02:53:47;;;;;;;30.17;10.68;;;;;;;3.03;84.71;101451.56;1884127;76;21014;-61
2021/12/28 02:56:18;;;;;;;16.32;6.87;;;;;;;3.03;84.81;101441.16;1884003;76;21013;-61
2021/12/28 02:58:50;;;;;;;30.92;12.68;;;;;;;3.01;84.86;101436.39;1889583;76;21088;-62
2021/12/28 03:01:21;;;;;;;44.90;17.62;;;;;;;2.99;84.99;101431.62;1892277;76;21127;-61
2021/12/28 03:03:53;;;;;;;35.17;12.20;;;;;;;3.03;84.91;101439.86;1892070;76;21054;-61
2021/12/28 03:06:28;;;;;;;32.40;11.25;;;;;;;3.07;84.85;101439.00;1892266;76;21044;-63
2021/12/28 03:08:57;;;;;;;32.05;10.20;;;;;;;3.14;84.75;101448.14;1885295;75;21540;-64
2021/12/28 03:11:28;;;;;;;30.12;10.50;;;;;;;3.17;84.63;101436.42;1883750;76;21148;-66
2021/12/28 03:14:00;;;;;;;30.77;10.38;;;;;;;3.22;84.56;101430.80;1883733;76;21265;-61
2021/12/28 03:16:31;;;;;;;25.92;9.85;;;;;;;3.25;84.46;101424.31;1883744;76;21174;-67
2021/12/28 03:19:00;;;;;;;27.95;9.18;;;;;;;3.26;84.42;101420.42;1884000;76;21097;-66
2021/12/28 03:21:30;;;;;;;34.67;10.20;;;;;;;3.27;84.38;101413.03;1883736;76;21513;-62
2021/12/28 03:23:59;;;;;;;35.38;11.48;;;;;;;3.28;84.40;101406.08;1883755;76;21089;-63
2021/12/28 03:26:29;;;;;;;40.50;12.05;;;;;;;3.28;84.39;101409.57;1883933;76;21131;-59
2021/12/28 03:28:58;;;;;;;34.03;11.45;;;;;;;3.30;84.39;101413.45;1888658;75;21126;-60
2021/12/28 03:31:27;;;;;;;32.53;10.55;;;;;;;3.33;84.34;101413.47;1907107;75;21098;-70
2021/12/28 03:34:01;;;;;;;27.02;9.00;;;;;;;3.33;84.34;101409.56;1852367;76;21064;-69
2021/12/28 03:36:35;;;;;;;27.90;9.68;;;;;;;3.29;84.38;101393.07;1888155;75;21093;-68
2021/12/28 03:39:05;;;;;;;37.65;12.47;;;;;;;3.24;84.45;101393.94;1876653;76;21552;-67
2021/12/28 03:41:35;;;;;;;29.27;10.03;;;;;;;3.19;84.53;101393.05;1875284;76;21048;-68
2021/12/28 03:44:05;;;;;;;30.40;10.30;;;;;;;3.08;84.79;101384.80;1875154;76;21067;-66
2021/12/28 03:46:34;;;;;;;44.08;15.53;;;;;;;3.07;84.79;101385.66;1867524;76;21078;-66
2021/12/28 03:49:04;;;;;;;33.20;12.65;;;;;;;3.05;84.83;101375.69;1857081;77;21151;-68
2021/12/28 03:51:33;;;;;;;52.58;16.95;;;;;;;3.02;84.92;101383.47;1899358;75;21531;-67
2021/12/28 03:54:01;;;;;;;19.42;8.03;;;;;;;3.00;85.07;101383.91;1911318;75;21031;-67
2021/12/28 03:56:30;;;;;;;46.63;15.90;;;;;;;3.01;85.11;101378.29;1911201;75;21120;-68
2021/12/28 03:58:59;;;;;;;39.63;14.87;;;;;;;2.99;85.16;101374.79;1911027;75;21121;-70
2021/12/28 04:01:28;;;;;;;34.95;12.98;;;;;;;2.96;85.33;101374.80;1911410;75;21051;-67
2021/12/28 04:03:57;;;;;;;64.60;22.75;;;;;;;2.92;85.49;101373.06;1911281;74;21085;-67
2021/12/28 04:06:25;;;;;;;90.83;31.02;;;;;;;2.88;85.67;101370.89;1911361;75;21022;-69
2021/12/28 04:08:57;;;;;;;68.90;24.55;;;;;;;2.87;85.74;101371.30;1915385;75;21043;-63
2021/12/28 04:11:25;;;;;;;64.67;21.62;;;;;;;2.89;85.75;101366.09;1905774;74;21074;-65
2021/12/28 04:13:57;;;;;;;82.40;30.08;;;;;;;2.89;85.79;101373.91;1888765;76;21487;-64
2021/12/28 04:16:27;;;;;;;44.70;14.78;;;;;;;2.88;85.72;101383.45;1891935;75;21479;-66
2021/12/28 04:18:56;;;;;;;45.75;17.20;;;;;;;2.89;85.78;101375.20;1882338;76;21077;-67
2021/12/28 04:21:25;;;;;;;52.00;18.12;;;;;;;2.93;85.72;101369.58;1882275;76;21112;-68
2021/12/28 04:23:54;;;;;;;54.05;19.98;;;;;;;2.96;85.67;101364.39;1882291;75;21136;-67
2021/12/28 04:26:24;;;;;;;46.25;15.90;;;;;;;2.97;85.72;101372.20;1882171;76;21461;-67
2021/12/28 04:28:53;;;;;;;39.50;14.90;;;;;;;2.98;85.79;101375.23;1876709;76;21160;-66
2021/12/28 04:31:22;;;;;;;38.23;14.35;;;;;;;3.00;85.71;101366.99;1893423;76;21052;-65
2021/12/28 04:33:51;;;;;;;39.55;13.75;;;;;;;3.05;85.58;101367.88;1892669;76;21182;-66
2021/12/28 04:36:24;;;;;;;40.23;13.38;;;;;;;3.09;85.49;101363.55;1884853;76;21251;-66
2021/12/28 04:38:55;;;;;;;39.65;13.45;;;;;;;3.12;85.43;101361.38;1917561;74;21125;-65
2021/12/28 04:41:26;;;;;;;49.05;14.58;;;;;;;3.14;85.38;101360.97;1923132;74;21140;-62
2021/12/28 04:43:54;;;;;;;40.63;13.55;;;;;;;3.14;85.26;101364.88;1923029;74;21057;-61
2021/12/28 04:46:23;;;;;;;43.90;14.53;;;;;;;3.15;85.15;101366.15;1922937;74;21500;-62
2021/12/28 04:48:52;;;;;;;45.67;14.40;;;;;;;3.16;85.01;101367.05;1922949;74;21046;-62
2021/12/28 04:51:22;;;;;;;38.25;12.93;;;;;;;3.16;84.96;101365.74;1920695;74;21078;-67
2021/12/28 04:53:56;;;;;;;47.98;13.90;;;;;;;3.17;84.95;101364.86;1919404;75;21034;-64
2021/12/28 04:56:25;;;;;;;51.13;16.42;;;;;;;3.18;84.93;101354.89;1919624;75;21011;-64
2021/12/28 04:58:54;;;;;;;35.23;12.85;;;;;;;3.18;84.96;101360.10;1919431;75;21011;-63
2021/12/28 05:01:26;;;;;;;37.30;12.53;;;;;;;3.16;85.15;101352.29;1919374;75;21120;-65
2021/12/28 05:03:54;;;;;;;40.52;15.60;;;;;;;3.15;85.33;101350.98;1919488;75;21108;-63
2021/12/28 05:06:23;;;;;;;34.43;13.60;;;;;;;3.20;85.36;101351.42;1919512;75;21522;-63
2021/12/28 05:08:52;;;;;;;40.70;14.50;;;;;;;3.22;85.29;101354.02;1919312;74;21135;-64
2021/12/28 05:11:21;;;;;;;42.33;14.98;;;;;;;3.21;85.30;101354.88;1919417;75;21034;-65
2021/12/28 05:13:49;;;;;;;38.08;13.70;;;;;;;3.21;85.29;101352.28;1919312;75;21760;-66
2021/12/28 05:16:18;;;;;;;42.73;15.40;;;;;;;3.22;85.33;101354.88;1919181;75;21006;-64
2021/12/28 05:18:47;;;;;;;43.78;14.47;;;;;;;3.29;85.31;101358.38;1919375;75;21070;-63
2021/12/28 05:21:16;;;;;;;59.35;18.42;;;;;;;3.29;85.22;101349.27;1919355;75;21554;-61
2021/12/28 05:23:45;;;;;;;42.38;14.80;;;;;;;3.29;85.19;101348.82;1919419;75;21141;-61
2021/12/28 05:26:14;;;;;;;52.50;16.62;;;;;;;3.32;85.18;101351.87;1919328;75;21010;-62
2021/12/28 05:28:43;;;;;;;45.98;15.43;;;;;;;3.36;85.16;101365.33;1919219;75;21011;-62
2021/12/28 05:31:12;;;;;;;48.13;17.75;;;;;;;3.37;85.30;101338.41;1919488;75;21038;-61
2021/12/28 05:33:41;;;;;;;36.23;14.80;;;;;;;3.42;85.30;101335.37;1918924;75;21179;-62
2021/12/28 05:36:10;;;;;;;48.13;15.98;;;;;;;3.48;85.25;101343.17;1889562;75;21468;-61
2021/12/28 05:38:40;;;;;;;37.33;14.55;;;;;;;3.54;85.21;101341.03;1889634;74;21035;-62
2021/12/28 05:41:09;;;;;;;39.08;14.90;;;;;;;3.61;85.18;101341.88;1889515;74;21019;-61
2021/12/28 05:43:37;;;;;;;53.02;16.90;;;;;;;3.68;85.12;101343.62;1889489;75;21018;-60
2021/12/28 05:46:08;;;;;;;71.30;17.48;;;;;;;3.78;85.06;101348.37;1889477;76;21124;-61
2021/12/28 05:48:55;;;;;;;48.28;14.78;;;;;;;3.85;84.90;101340.57;1926774;74;21118;-62
2021/12/28 05:51:24;;;;;;;37.90;13.68;;;;;;;3.94;84.82;101333.59;1947246;73;21095;-63
2021/12/28 05:53:53;;;;;;;45.98;16.48;;;;;;;3.97;84.79;101327.08;1958532;73;21526;-61
2021/12/28 05:56:22;;;;;;;33.70;12.33;;;;;;;4.02;84.75;101339.23;1958754;73;21159;-62
2021/12/28 05:58:51;;;;;;;40.20;14.05;;;;;;;4.14;84.87;101338.31;1958577;73;21123;-61
2021/12/28 06:01:20;;;;;;;41.95;14.68;;;;;;;4.32;84.83;101336.54;1958601;73;21085;-61
2021/12/28 06:03:49;;;;;;;41.58;16.95;;;;;;;4.47;84.65;101333.00;1958654;73;21203;-61
2021/12/28 06:06:18;;;;;;;39.88;15.75;;;;;;;4.57;84.52;101330.31;1958441;73;21073;-63
2021/12/28 06:08:46;;;;;;;20.20;8.88;;;;;;;4.74;84.43;101331.97;1958555;73;21033;-63
2021/12/28 06:11:16;;;;;;;9.65;5.53;;;;;;;4.98;84.42;101331.85;1958549;73;21018;-62
2021/12/28 06:13:45;;;;;;;4.20;2.30;;;;;;;5.39;84.12;101326.76;1958810;73;21030;-62
2021/12/28 06:16:15;;;;;;;4.92;2.25;;;;;;;5.95;82.90;101323.62;1958458;73;21026;-62
2021/12/28 06:18:43;;;;;;;4.87;2.62;;;;;;;6.62;80.61;101318.08;1958372;73;21026;-63
2021/12/28 06:21:30;;;;;;;7.60;2.35;;;;;;;7.30;78.48;101315.75;1958576;73;21088;-67
2021/12/28 06:24:01;;;;;;;4.53;2.70;;;;;;;7.98;76.56;101319.36;1956709;73;21799;-70
2021/12/28 06:26:32;;;;;;;3.92;2.27;;;;;;;8.76;75.97;101311.69;1956403;73;21079;-66
2021/12/28 06:29:02;;;;;;;7.03;2.62;;;;;;;9.20;75.39;101311.10;1958299;73;21154;-64
2021/12/28 06:31:31;;;;;;;2.87;1.98;;;;;;;9.43;75.03;101314.46;1958419;73;21139;-66
2021/12/28 06:34:01;;;;;;;5.42;2.92;;;;;;;9.46;74.51;101309.14;1910937;74;21501;-64
2021/12/28 06:36:31;;;;;;;3.90;2.17;;;;;;;9.43;74.23;101316.23;1884015;76;21088;-64
2021/12/28 06:39:00;;;;;;;5.15;2.40;;;;;;;9.38;74.14;101311.54;1908513;74;21148;-64
2021/12/28 06:41:28;;;;;;;7.10;2.90;;;;;;;9.28;73.38;101306.52;1920551;74;21502;-67
2021/12/28 06:43:58;;;;;;;4.60;2.70;;;;;;;9.19;73.71;101313.30;1920564;75;21534;-65
2021/12/28 06:46:26;;;;;;;6.12;2.87;;;;;;;9.17;74.00;101305.91;1920562;75;21506;-64
2021/12/28 06:48:55;;;;;;;3.17;2.37;;;;;;;9.10;73.80;101310.89;1933282;73;21125;-64
2021/12/28 06:51:24;;;;;;;4.10;2.15;;;;;;;9.08;71.87;101315.33;1946734;73;21100;-66
2021/12/28 06:53:53;;;;;;;5.03;2.72;;;;;;;9.08;71.99;101304.81;1952370;73;21437;-66
2021/12/28 06:56:21;;;;;;;4.92;2.20;;;;;;;9.08;71.09;101300.42;1952165;73;21452;-67
2021/12/28 06:58:50;;;;;;;4.08;2.58;;;;;;;9.11;69.62;101298.62;1952286;73;21062;-66
2021/12/28 07:01:19;;;;;;;4.15;2.67;;;;;;;9.17;66.71;101301.97;1952318;73;21054;-67
2021/12/28 07:03:47;;;;;;;3.00;1.92;;;;;;;9.24;67.00;101294.78;1952570;73;21143;-67
2021/12/28 07:06:16;;;;;;;7.78;2.77;;;;;;;9.27;67.52;101294.72;1952489;73;21022;-66
2021/12/28 07:08:45;;;;;;;4.22;2.42;;;;;;;9.29;67.79;101287.66;1952232;73;21480;-66
2021/12/28 07:11:14;;;;;;;3.58;2.10;;;;;;;9.33;67.31;101293.70;1952381;73;21034;-66
2021/12/28 07:13:43;;;;;;;7.25;3.60;;;;;;;9.34;66.50;101283.61;1952329;73;21535;-65
2021/12/28 07:16:14;;;;;;;4.10;2.80;;;;;;;9.39;66.58;101293.56;1952354;73;21054;-66
2021/12/28 07:18:43;;;;;;;6.05;2.62;;;;;;;9.44;65.91;101293.86;1934738;73;21011;-65
2021/12/28 07:21:11;;;;;;;5.05;2.40;;;;;;;9.49;65.79;101284.53;1932781;74;21030;-66
2021/12/28 07:23:40;;;;;;;3.27;2.10;;;;;;;9.55;65.22;101284.81;1933375;74;21121;-60
2021/12/28 07:26:09;;;;;;;3.25;1.92;;;;;;;9.64;64.58;101284.11;1933282;74;21038;-59
2021/12/28 07:28:38;;;;;;;2.87;1.90;;;;;;;9.75;63.77;101284.30;1933214;74;21025;-61
2021/12/28 07:31:07;;;;;;;1.85;1.37;;;;;;;9.88;63.29;101286.99;1933470;74;21425;-62
2021/12/28 07:33:35;;;;;;;8.38;1.92;;;;;;;9.99;63.35;101281.44;1933417;74;21124;-62
2021/12/28 07:36:05;;;;;;;4.47;1.80;;;;;;;10.11;62.55;101283.73;1933335;74;21146;-63
2021/12/28 07:38:38;;;;;;;3.35;2.02;;;;;;;10.39;61.51;101278.56;1930523;74;21023;-61
2021/12/28 07:41:08;;;;;;;2.30;1.67;;;;;;;11.12;59.60;101275.88;1929776;74;21466;-60
2021/12/28 07:43:37;;;;;;;2.87;1.80;;;;;;;11.78;57.97;101272.73;1929751;74;21481;-60
2021/12/28 07:46:06;;;;;;;3.85;2.17;;;;;;;12.25;56.93;101267.55;1929744;74;21039;-62
2021/12/28 07:48:35;;;;;;;5.47;2.22;;;;;;;12.18;55.80;101268.69;1924214;74;21060;-60
2021/12/28 07:51:04;;;;;;;5.05;2.15;;;;;;;11.92;56.42;101269.19;1917349;74;21022;-60
2021/12/28 07:53:34;;;;;;;3.58;2.02;;;;;;;11.75;56.06;101261.84;1920184;75;21034;-61
2021/12/28 07:56:04;;;;;;;2.55;1.57;;;;;;;11.73;55.75;101246.97;1920795;75;21522;-60
2021/12/28 07:58:33;;;;;;;2.67;1.70;;;;;;;12.25;54.05;101245.11;1920766;75;21010;-60
2021/12/28 08:01:02;;;;;;;3.55;2.30;;;;;;;13.03;51.38;101249.07;1920664;74;21465;-60
2021/12/28 08:03:30;;;;;;;3.45;2.22;;;;;;;13.59;50.66;101244.11;1920872;75;21062;-60
2021/12/28 08:06:00;;;;;;;5.50;1.85;;;;;;;13.98;50.00;101244.59;1920792;75;21090;-60
2021/12/28 08:08:29;;;;;;;2.50;1.72;;;;;;;14.07;50.08;101241.53;1920784;74;21030;-60
2021/12/28 08:10:58;;;;;;;3.60;1.72;;;;;;;14.29;50.14;101238.75;1920815;74;21093;-61
2021/12/28 08:13:27;;;;;;;4.33;1.82;;;;;;;14.58;48.71;101241.39;1917733;75;21493;-62
2021/12/28 08:15:56;;;;;;;4.25;2.33;;;;;;;14.87;48.35;101239.12;1913778;75;21141;-61
2021/12/28 08:18:25;;;;;;;2.85;1.95;;;;;;;15.30;47.71;101236.97;1917129;75;21464;-60
2021/12/28 08:20:53;;;;;;;3.92;1.55;;;;;;;15.47;46.95;101233.45;1920770;75;21066;-62
2021/12/28 08:23:22;;;;;;;4.62;1.90;;;;;;;15.22;46.56;101228.08;1919465;75;21121;-61
2021/12/28 08:25:51;;;;;;;10.25;1.90;;;;;;;14.91;47.30;101231.88;1913664;75;21090;-61
2021/12/28 08:28:20;;;;;;;4.92;2.10;;;;;;;14.86;48.40;101222.81;1913865;75;21105;-62
2021/12/28 08:30:49;;;;;;;2.77;1.92;;;;;;;14.80;48.63;101227.11;1913868;75;21107;-62
2021/12/28 08:33:18;;;;;;;4.12;1.85;;;;;;;14.86;48.64;101221.48;1913717;75;21121;-63
2021/12/28 08:35:47;;;;;;;4.72;2.02;;;;;;;14.60;49.31;101223.61;1920931;74;21014;-62
2021/12/28 08:38:16;;;;;;;5.00;1.85;;;;;;;14.24;50.00;101213.81;1920727;75;21532;-62
2021/12/28 08:40:46;;;;;;;3.85;2.02;;;;;;;14.32;49.87;101213.45;1920842;75;21101;-61
2021/12/28 08:43:16;;;;;;;5.10;2.92;;;;;;;14.56;50.51;101211.42;1920777;74;21108;-61
2021/12/28 08:45:45;;;;;;;3.40;2.42;;;;;;;15.08;49.95;101212.48;1914703;75;21125;-62
2021/12/28 08:48:14;;;;;;;5.42;2.60;;;;;;;15.54;49.48;101202.15;1913800;75;21040;-61
2021/12/28 08:50:44;;;;;;;5.47;2.65;;;;;;;15.83;49.12;101197.50;1929194;74;21559;-61
2021/12/28 08:53:13;;;;;;;7.35;2.77;;;;;;;15.67;49.62;101196.58;1933312;74;21569;-60
2021/12/28 08:55:44;;;;;;;7.35;3.92;;;;;;;15.27;50.35;101195.14;1933063;74;21033;-60
2021/12/28 08:58:14;;;;;;;11.57;6.95;;;;;;;14.88;51.00;101190.45;1933245;74;21038;-62
2021/12/28 09:00:43;;;;;;;13.03;5.90;;;;;;;14.56;51.72;101184.92;1933515;74;21085;-61
2021/12/28 09:03:12;;;;;;;7.62;3.65;;;;;;;14.32;52.12;101180.81;1932416;73;21015;-62
2021/12/28 09:05:41;;;;;;;5.60;2.55;;;;;;;14.07;51.97;101171.36;1929634;74;21070;-61
2021/12/28 09:08:13;;;;;;;3.47;2.10;;;;;;;13.85;52.29;101163.11;1929822;74;21442;-61
2021/12/28 09:10:48;;;;;;;4.03;2.25;;;;;;;13.80;51.55;101159.81;1928590;74;21188;-62
2021/12/28 09:13:17;;;;;;;4.65;1.92;;;;;;;13.69;51.18;101159.44;1932154;74;21035;-61
2021/12/28 09:15:47;;;;;;;5.28;3.00;;;;;;;13.63;51.46;101153.08;1933001;74;21140;-63
2021/12/28 09:18:16;;;;;;;3.60;1.85;;;;;;;13.71;51.58;101154.94;1932796;74;22237;-63
2021/12/28 09:20:45;;;;;;;4.70;2.00;;;;;;;13.84;50.66;101150.79;1933014;74;21112;-62
2021/12/28 09:23:14;;;;;;;5.37;2.58;;;;;;;13.81;49.78;101143.45;1932932;74;21071;-61
2021/12/28 09:25:43;;;;;;;2.52;1.98;;;;;;;13.73;49.37;101141.16;1933194;74;21104;-61
2021/12/28 09:28:12;;;;;;;5.28;2.12;;;;;;;13.68;50.21;101137.86;1932959;74;21164;-62
2021/12/28 09:30:43;;;;;;;5.20;2.33;;;;;;;13.63;50.59;101125.30;1932800;74;21098;-62
2021/12/28 09:33:12;;;;;;;3.52;1.92;;;;;;;13.63;50.99;101130.59;1932351;74;21538;-61
2021/12/28 09:35:41;;;;;;;3.20;2.22;;;;;;;13.60;50.10;101128.11;1929965;74;21508;-61
2021/12/28 09:38:10;;;;;;;3.95;1.90;;;;;;;13.60;50.17;101127.64;1929726;74;21124;-62
2021/12/28 09:40:39;;;;;;;3.62;1.85;;;;;;;13.75;49.70;101116.81;1929722;74;21055;-62
2021/12/28 09:43:09;;;;;;;3.47;1.80;;;;;;;14.05;49.22;101122.91;1929565;74;21082;-63
2021/12/28 09:45:38;;;;;;;3.50;2.10;;;;;;;14.13;48.62;101110.63;1929864;74;21457;-61
2021/12/28 09:48:08;;;;;;;4.80;1.98;;;;;;;14.05;49.37;101114.97;1929773;74;21112;-61
2021/12/28 09:50:39;;;;;;;5.15;2.85;;;;;;;13.89;48.96;101106.44;1909869;74;21457;-63
2021/12/28 09:53:13;;;;;;;8.23;2.02;;;;;;;13.76;49.21;101107.95;1901422;75;21473;-62
2021/12/28 09:55:41;;;;;;;4.23;2.50;;;;;;;13.65;49.38;101098.34;1901598;75;21011;-62
2021/12/28 09:58:10;;;;;;;3.75;2.30;;;;;;;13.54;49.59;101104.11;1901369;75;21481;-63
2021/12/28 10:00:39;;;;;;;3.10;2.15;;;;;;;13.48;49.72;101108.34;1901468;75;21140;-62
2021/12/28 10:03:08;;;;;;;7.83;2.60;;;;;;;13.40;49.48;101104.72;1858370;75;21054;-62
2021/12/28 10:05:37;;;;;;;4.17;2.58;;;;;;;13.35;50.12;101105.39;1854246;77;21026;-61
2021/12/28 10:08:07;;;;;;;4.55;2.20;;;;;;;13.33;49.51;101100.63;1854200;77;21488;-62
2021/12/28 10:10:38;;;;;;;5.42;2.17;;;;;;;13.31;49.97;101092.77;1854380;77;21026;-62
2021/12/28 10:13:10;;;;;;;4.83;2.08;;;;;;;13.31;49.97;101091.44;1853202;75;21030;-63
2021/12/28 10:15:42;;;;;;;5.28;2.98;;;;;;;13.34;50.14;101094.91;1847437;77;21045;-63
2021/12/28 10:18:12;;;;;;;4.95;2.65;;;;;;;13.38;50.31;101085.42;1848195;78;21106;-61
2021/12/28 10:20:49;;;;;;;7.42;2.72;;;;;;;13.47;49.75;101083.68;1848028;78;21041;-62
2021/12/28 10:23:21;;;;;;;3.58;2.10;;;;;;;13.68;50.01;101091.11;1877806;75;21063;-62
2021/12/28 10:25:55;;;;;;;4.65;2.62;;;;;;;13.92;48.92;101086.05;1901564;75;21063;-62
2021/12/28 10:28:27;;;;;;;4.97;2.42;;;;;;;13.97;49.30;101086.22;1901472;75;21070;-62
2021/12/28 10:30:59;;;;;;;4.20;2.22;;;;;;;13.98;49.56;101078.69;1901524;75;21465;-61
2021/12/28 10:33:30;;;;;;;5.47;2.67;;;;;;;13.95;49.21;101074.00;1896151;75;21031;-61
2021/12/28 10:36:02;;;;;;;7.72;3.10;;;;;;;13.86;49.45;101077.46;1901628;75;21007;-62
2021/12/28 10:38:33;;;;;;;9.18;3.12;;;;;;;13.82;49.89;101082.98;1901450;75;21023;-62
2021/12/28 10:41:07;;;;;;;8.20;2.70;;;;;;;13.80;50.24;101081.73;1901494;75;21101;-62
2021/12/28 10:43:39;;;;;;;4.45;2.67;;;;;;;13.82;50.43;101079.02;1901400;75;21026;-61
2021/12/28 10:46:10;;;;;;;5.72;3.33;;;;;;;13.81;50.51;101080.78;1901523;75;21023;-62
2021/12/28 10:48:42;;;;;;;6.87;3.52;;;;;;;13.85;50.47;101071.79;1898230;75;21128;-60
2021/12/28 10:51:14;;;;;;;8.03;3.65;;;;;;;13.83;50.40;101076.75;1902260;74;21090;-61
2021/12/28 10:53:55;;;;;;;4.28;2.70;;;;;;;13.77;50.39;101080.54;1904446;75;21078;-62
2021/12/28 10:56:16;;;;;;;6.70;2.45;;;;;;;13.73;50.78;101080.30;1904748;75;21086;-61
2021/12/28 10:58:50;;;;;;;9.45;2.15;;;;;;;13.70;50.56;101076.46;1902371;75;21262;-61
2021/12/28 11:01:21;;;;;;;4.78;2.42;;;;;;;13.66;51.01;101078.86;1904326;75;21034;-62
2021/12/28 11:03:56;;;;;;;4.67;2.45;;;;;;;13.60;50.93;101071.22;1902915;75;21450;-62
2021/12/28 11:06:30;;;;;;;6.15;2.27;;;;;;;13.60;51.70;101068.10;1848151;78;21054;-63
2021/12/28 11:09:02;;;;;;;4.80;2.50;;;;;;;13.60;51.90;101065.93;1865075;75;21003;-62
2021/12/28 11:11:31;;;;;;;6.35;2.45;;;;;;;13.60;52.14;101064.61;1904406;75;21038;-62
2021/12/28 11:14:02;;;;;;;6.10;2.40;;;;;;;13.59;52.23;101065.52;1904280;75;21469;-62
2021/12/28 11:16:32;;;;;;;7.40;2.83;;;;;;;13.59;52.32;101060.23;1904328;75;21567;-63
2021/12/28 11:19:03;;;;;;;6.53;2.40;;;;;;;13.57;52.18;101050.19;1903119;75;21097;-62
2021/12/28 11:21:35;;;;;;;4.25;2.33;;;;;;;13.54;52.33;101054.28;1904311;75;21461;-62
2021/12/28 11:24:15;;;;;;;7.62;2.65;;;;;;;13.49;52.45;101052.72;1904307;75;21140;-62
2021/12/28 11:26:50;;;;;;;4.70;2.55;;;;;;;13.46;52.85;101046.27;1904300;75;21086;-62
2021/12/28 11:29:22;;;;;;;7.90;2.30;;;;;;;13.43;52.77;101046.87;1904253;75;21508;-61
2021/12/28 11:31:53;;;;;;;5.37;2.33;;;;;;;13.41;52.78;101046.94;1900923;75;21039;-62
2021/12/28 11:34:28;;;;;;;8.58;2.72;;;;;;;13.45;53.01;101044.55;1904483;75;21461;-61
2021/12/28 11:36:59;;;;;;;4.10;2.60;;;;;;;13.56;52.93;101048.48;1904472;75;21124;-63
2021/12/28 11:39:34;;;;;;;6.53;3.02;;;;;;;13.62;52.62;101042.91;1904284;75;21030;-64